MUVR Airport Information

Runway Information
Runway 06 Length 11490 ft width 148 ft
Elevation 210 ft Threshold 0 ft Heading 56
Runway 24 Length 11490 ft Width 148 ft
Elevation 210 ft Threshold 0 ft Heading 236
Airport Frequencies
Type A/G Name VARADERO R Frequency 126.9 MHZ
Type A/G Name VARADERO R Frequency 1132.1 MHZ
Type APP Name VARADERO A Frequency 119.6 MHZ
Type TWR Name VARADERO T Frequency 118.4 MHZ
Airport Navaids
Type VOR-DME Name Varder Frequency 114800 KHZ
Type NDB Name Varder Frequency 430 KHZ
Airport Weather Information & NOTAM
ADDS - METARS form results

(2031 UTC 05 July 2020)
Data provider http://aviationweather.gov/metar/data/
 
METAR text: MUVR 052012Z 34003KT 9000 SCT025 BKN090 27/22 Q1016
Conditions at: MUVR (VARADERO , CU) observed 2012 UTC 05 July 2020
Temperature: 27.0°C (81°F)
Dewpoint: 22.0°C (72°F) [RH = 74%]
Pressure (altimeter): 30.00 inches Hg (1016.0 mb)
Winds: from the NNW (340 degrees) at 3 MPH (3 knots; 1.5 m/s)
Visibility: 6 miles ( 9 km)
Ceiling: 9000 feet AGL
Clouds: scattered clouds at 2500 feet AGL
broken clouds at 9000 feet AGL
Weather: no significant weather observed at this time

METAR text: MUVR 051950Z VRB02KT 8000 VCTS FEW019CB SCT020 26/22 Q1016
Conditions at: MUVR (VARADERO , CU) observed 1950 UTC 05 July 2020
Temperature: 26.0°C (79°F)
Dewpoint: 22.0°C (72°F) [RH = 79%]
Pressure (altimeter): 30.00 inches Hg (1016.0 mb)
Winds: variable direction winds at 2 MPH (2 knots; 1.0 m/s)
Visibility: 5 miles ( 8 km)
Ceiling: at least 12,000 feet AGL
Clouds: few clouds at 1900 feet AGL
scattered clouds at 2000 feet AGL
Weather: VCTS  (thunderstorm in vicinity)

Forecast for: MUVR (VARADERO , CU)
Text: MUVR 051700Z 0518/0618 VRB03KT 9000 SCT020 BKN070
Forecast period: 1800 UTC 05 July 2020 to 0200 UTC 06 July 2020
Forecast type: FROM: standard forecast or significant change
Winds: variable direction winds at 3 MPH (3 knots; 1.5 m/s)
Visibility: 6 miles (9 km)
Ceiling: 7000 feet AGL
Clouds: scattered clouds at 2000 feet AGL
broken clouds at 7000 feet AGL
Weather: no significant weather forecast for this period
Text: TEMPO 0518/0524 VRB10KT 3000 TSRA SCT018CB BKN020
Forecast period: 1800 UTC 05 July 2020 to 0000 UTC 06 July 2020
Forecast type: TEMPORARY: The following changes expected for less than half the time period
Winds: variable direction winds at 12 MPH (10 knots; 5.1 m/s)
Visibility: 1.86 miles (2.99 km)
Ceiling: 2000 feet AGL
Clouds: scattered clouds at 1800 feet AGL
broken clouds at 2000 feet AGL
Weather: TSRA  (rain associated with thunderstorm(s))
Text: BECMG 0602/0604 SCT020
Forecast period: 0200 to 1800 UTC 06 July 2020
Forecast type: BECOMING: Conditions expected to become as follows by 0400 UTC 06 July 2020
Winds: variable direction winds at 3 MPH (3 knots; 1.5 m/s)
Visibility: 6 miles (9 km)
Ceiling: at least 12,000 feet AGL
Clouds: scattered clouds at 2000 feet AGL
Weather: no significant weather forecast for this period